createdAt,value
2022-09-23T00:09:16.924Z,1.77
2022-09-23T00:09:40.310Z,.64
2022-09-23T00:10:02.143Z,1.77
2022-09-23T00:10:34.104Z,1.44
2022-09-23T00:11:06.095Z,2.89
2022-09-23T00:11:38.419Z,1.77
2022-09-23T00:12:10.084Z,1.12
2022-09-23T00:12:40.230Z,.64
2022-09-23T00:12:58.509Z,1.77
2022-09-23T00:13:30.020Z,1.12
2022-09-23T00:13:47.311Z,0
2022-09-23T00:14:18.392Z,1.12
2022-09-23T00:14:40.328Z,1.77
2022-09-23T00:15:06.214Z,1.77
2022-09-23T00:15:38.399Z,.64
2022-09-23T00:16:09.979Z,1.77
2022-09-23T00:16:42.045Z,1.44
2022-09-23T00:16:58.452Z,.32
2022-09-23T00:17:30.098Z,.32
2022-09-23T00:17:47.331Z,2.57
2022-09-23T00:18:18.587Z,2.09
2022-09-23T00:18:40.213Z,1.77
2022-09-23T00:19:06.354Z,.32
2022-09-23T00:19:38.760Z,1.44
2022-09-23T00:20:10.682Z,.32
2022-09-23T00:20:40.260Z,0
2022-09-23T00:20:58.487Z,2.89
2022-09-23T00:21:30.090Z,2.89
2022-09-23T00:21:47.243Z,2.09
2022-09-23T00:22:18.387Z,.32
2022-09-23T00:22:40.228Z,0
2022-09-23T00:23:06.120Z,4.34
2022-09-23T00:23:38.438Z,2.57
2022-09-23T00:24:10.059Z,2.09
2022-09-23T00:24:40.879Z,1.77
2022-09-23T00:24:58.419Z,1.12
2022-09-23T00:25:30.059Z,1.77
2022-09-23T00:25:47.264Z,1.44
2022-09-23T00:26:18.365Z,.64
2022-09-23T00:26:40.255Z,.32
2022-09-23T00:27:07.386Z,2.09
2022-09-23T00:27:38.361Z,2.09
2022-09-23T00:28:10.104Z,1.77
2022-09-23T00:28:40.242Z,1.44
2022-09-23T00:28:58.482Z,2.89
2022-09-23T00:29:30.107Z,2.09
2022-09-23T00:29:48.093Z,1.77
2022-09-23T00:30:18.429Z,0
2022-09-23T00:30:40.257Z,0
2022-09-23T00:31:06.101Z,2.09
2022-09-23T00:31:38.321Z,1.77
2022-09-23T00:32:10.044Z,1.12
2022-09-23T00:32:40.214Z,2.09
2022-09-23T00:32:59.066Z,2.09
2022-09-23T00:33:30.257Z,1.12
2022-09-23T00:33:47.436Z,.32
2022-09-23T00:34:18.423Z,2.09
2022-09-23T00:34:40.859Z,2.09
2022-09-23T00:35:06.044Z,1.12
2022-09-23T00:35:38.318Z,1.77
2022-09-23T00:36:10.151Z,2.57
2022-09-23T00:36:40.266Z,1.44
2022-09-23T00:36:58.581Z,2.89
2022-09-23T00:37:30.201Z,2.57
2022-09-23T00:37:47.189Z,3.54
2022-09-23T00:38:18.591Z,5.47
2022-09-23T00:38:41.111Z,4.02
2022-09-23T00:39:06.382Z,2.89
2022-09-23T00:39:38.531Z,3.54
2022-09-23T00:40:11.154Z,5.47
2022-09-23T00:40:40.240Z,5.47
2022-09-23T00:40:58.446Z,4.34
2022-09-23T00:41:30.111Z,1.12
2022-09-23T00:41:47.367Z,1.12
2022-09-23T00:42:18.325Z,5.47
2022-09-23T00:42:40.222Z,5.47
2022-09-23T00:43:06.318Z,4.02
2022-09-23T00:43:38.418Z,3.54
2022-09-23T00:44:10.000Z,3.21
2022-09-23T00:44:40.383Z,.64
2022-09-23T00:44:58.423Z,3.21
2022-09-23T00:45:30.131Z,3.54
2022-09-23T00:45:47.508Z,2.89
2022-09-23T00:46:18.356Z,2.57
2022-09-23T00:46:40.325Z,4.02
2022-09-23T00:47:06.115Z,2.57
2022-09-23T00:47:38.981Z,3.54
2022-09-23T00:48:10.194Z,5.47
2022-09-23T00:48:40.208Z,3.21
2022-09-23T00:48:58.461Z,1.44
2022-09-23T00:49:30.174Z,4.98
2022-09-23T00:49:47.814Z,3.54
2022-09-23T00:50:18.784Z,1.44
2022-09-23T00:50:40.229Z,6.11
2022-09-23T00:51:06.125Z,3.54
2022-09-23T00:51:38.367Z,1.44
2022-09-23T00:52:10.106Z,4.98
2022-09-23T00:52:40.424Z,4.02
2022-09-23T00:52:58.660Z,2.09
2022-09-23T00:53:30.097Z,1.12
2022-09-23T00:53:47.203Z,2.89
2022-09-23T00:54:18.378Z,3.54
2022-09-23T00:54:40.318Z,1.77
2022-09-23T00:55:06.128Z,5.47
2022-09-23T00:55:38.614Z,1.44
2022-09-23T00:56:10.037Z,4.34
2022-09-23T00:56:40.236Z,1.12
2022-09-23T00:56:58.416Z,2.09
2022-09-23T00:57:30.070Z,4.98
2022-09-23T00:57:47.196Z,3.54
2022-09-23T00:58:18.180Z,4.66
2022-09-23T00:58:40.562Z,3.54
2022-09-23T00:59:06.030Z,1.77
2022-09-23T00:59:38.364Z,1.12
2022-09-23T01:00:10.377Z,4.66
2022-09-23T01:00:40.239Z,3.21
2022-09-23T01:00:58.483Z,.64
2022-09-23T01:01:30.153Z,2.57
2022-09-23T01:01:47.266Z,2.89
2022-09-23T01:02:18.557Z,2.09
2022-09-23T01:02:41.404Z,.64
2022-09-23T01:03:06.129Z,1.44
2022-09-23T01:03:38.224Z,1.12
2022-09-23T01:04:10.331Z,.32
2022-09-23T01:04:40.198Z,1.44
2022-09-23T01:04:58.558Z,1.44
2022-09-23T01:05:30.801Z,0
2022-09-23T01:05:48.147Z,.64
2022-09-23T01:06:18.389Z,0
2022-09-23T01:06:40.216Z,0
2022-09-23T01:07:06.102Z,0
2022-09-23T01:07:38.349Z,0
2022-09-23T01:08:10.106Z,0
2022-09-23T01:08:40.235Z,0
2022-09-23T01:08:58.347Z,0
2022-09-23T01:09:29.959Z,0
2022-09-23T01:09:47.124Z,0
2022-09-23T01:10:18.364Z,0
2022-09-23T01:10:40.278Z,0
2022-09-23T01:11:06.068Z,0
2022-09-23T01:11:38.365Z,0
2022-09-23T01:12:09.993Z,0
2022-09-23T01:12:40.262Z,0
2022-09-23T01:12:58.371Z,0
2022-09-23T01:13:29.933Z,0
2022-09-23T01:13:47.174Z,.32
2022-09-23T01:14:18.409Z,0
2022-09-23T01:14:40.227Z,.32
2022-09-23T01:15:06.216Z,1.77
2022-09-23T01:15:39.025Z,1.77
2022-09-23T01:16:10.149Z,1.77
2022-09-23T01:16:42.783Z,1.77
2022-09-23T01:16:58.591Z,1.77
2022-09-23T01:17:29.995Z,1.77
2022-09-23T01:17:47.329Z,1.77
2022-09-23T01:18:18.331Z,1.77
2022-09-23T01:18:40.335Z,1.77
2022-09-23T01:19:06.123Z,1.77
2022-09-23T01:19:38.351Z,0
2022-09-23T01:20:10.534Z,0
2022-09-23T01:20:41.107Z,0
2022-09-23T01:20:58.411Z,0
2022-09-23T01:21:30.109Z,1.12
2022-09-23T01:21:47.340Z,.32
2022-09-23T01:22:18.336Z,0
2022-09-23T01:22:40.225Z,0
2022-09-23T01:23:06.160Z,0
2022-09-23T01:23:38.424Z,0
2022-09-23T01:24:10.771Z,0
2022-09-23T01:24:40.313Z,0
2022-09-23T01:24:58.350Z,0
2022-09-23T01:25:31.226Z,0
2022-09-23T01:25:50.143Z,0
2022-09-23T01:26:18.365Z,0
2022-09-23T01:26:40.453Z,0
2022-09-23T01:27:06.394Z,0
2022-09-23T01:27:38.389Z,0
2022-09-23T01:28:09.969Z,0
2022-09-23T01:28:40.218Z,0
2022-09-23T01:28:58.539Z,0
2022-09-23T01:29:30.899Z,0
2022-09-23T01:29:48.428Z,0
2022-09-23T01:30:18.257Z,0
2022-09-23T01:30:40.383Z,0
2022-09-23T01:31:06.187Z,0
2022-09-23T01:31:38.349Z,0
2022-09-23T01:32:09.966Z,0
2022-09-23T01:32:40.291Z,0
2022-09-23T01:32:58.372Z,0
2022-09-23T01:33:30.082Z,0
2022-09-23T01:33:47.449Z,0
2022-09-23T01:34:18.418Z,0
2022-09-23T01:34:40.253Z,0
2022-09-23T01:35:06.020Z,0
2022-09-23T01:35:39.059Z,0
2022-09-23T01:36:10.666Z,0
2022-09-23T01:36:41.477Z,0
2022-09-23T01:36:58.341Z,0
2022-09-23T01:37:30.006Z,0
2022-09-23T01:37:47.160Z,0
2022-09-23T01:38:18.432Z,0
2022-09-23T01:38:40.235Z,0
2022-09-23T01:39:06.282Z,0
2022-09-23T01:39:38.308Z,0
2022-09-23T01:40:10.553Z,0
2022-09-23T01:40:40.331Z,0
2022-09-23T01:40:58.351Z,0
2022-09-23T01:41:29.969Z,1.44
2022-09-23T01:41:47.186Z,1.44
2022-09-23T01:42:18.411Z,0
2022-09-23T01:42:40.271Z,0
2022-09-23T01:43:06.073Z,0
2022-09-23T01:43:38.327Z,2.09
2022-09-23T01:44:10.021Z,2.09
2022-09-23T01:44:40.239Z,1.77
2022-09-23T01:44:58.421Z,1.77
2022-09-23T01:45:30.227Z,1.77
2022-09-23T01:45:47.203Z,1.77
2022-09-23T01:46:19.410Z,1.77
2022-09-23T01:46:40.118Z,1.77
2022-09-23T01:47:05.892Z,1.77
2022-09-23T01:47:38.255Z,1.77
2022-09-23T01:48:10.063Z,.32
2022-09-23T01:48:41.245Z,0
2022-09-23T01:48:58.338Z,0
2022-09-23T01:49:29.969Z,0
2022-09-23T01:49:47.182Z,0
2022-09-23T01:50:18.325Z,0
2022-09-23T01:50:40.222Z,0
2022-09-23T01:51:06.088Z,0
2022-09-23T01:51:38.402Z,0
2022-09-23T01:52:09.932Z,0
2022-09-23T01:52:40.232Z,0
2022-09-23T01:52:58.329Z,0
2022-09-23T01:53:29.952Z,0
2022-09-23T01:53:47.293Z,0
2022-09-23T01:54:18.248Z,.32
2022-09-23T01:54:40.438Z,1.12
2022-09-23T01:55:06.064Z,.32
2022-09-23T01:55:38.482Z,.32
2022-09-23T01:56:10.030Z,0
2022-09-23T01:56:40.443Z,.64
2022-09-23T01:56:58.284Z,.32
2022-09-23T01:57:30.926Z,.32
2022-09-23T01:57:48.495Z,.32
2022-09-23T01:58:19.090Z,0
2022-09-23T01:58:40.956Z,0
2022-09-23T01:59:06.435Z,.32
2022-09-23T01:59:38.527Z,.32
2022-09-23T02:00:10.405Z,.32
2022-09-23T02:00:40.235Z,.32
2022-09-23T02:00:58.351Z,0
2022-09-23T02:01:30.928Z,0
2022-09-23T02:01:48.518Z,.32
2022-09-23T02:02:18.316Z,0
2022-09-23T02:02:40.396Z,0
2022-09-23T02:03:06.203Z,0
2022-09-23T02:03:38.392Z,0
2022-09-23T02:04:10.076Z,0
2022-09-23T02:04:40.337Z,0
2022-09-23T02:04:58.307Z,0
2022-09-23T02:05:29.988Z,.32
2022-09-23T02:05:47.432Z,1.44
2022-09-23T02:06:18.516Z,1.77
2022-09-23T02:06:40.227Z,1.77
2022-09-23T02:07:05.957Z,1.77
2022-09-23T02:07:38.442Z,1.77
2022-09-23T02:08:10.189Z,1.77
2022-09-23T02:08:40.212Z,1.44
2022-09-23T02:08:58.365Z,1.77
2022-09-23T02:09:29.978Z,1.12
2022-09-23T02:09:47.272Z,1.77
2022-09-23T02:10:18.512Z,1.77
2022-09-23T02:10:40.460Z,1.77
2022-09-23T02:11:06.013Z,1.44
2022-09-23T02:11:38.939Z,1.77
2022-09-23T02:12:10.059Z,1.77
2022-09-23T02:12:40.393Z,1.77
2022-09-23T02:12:58.379Z,1.77
2022-09-23T02:13:29.922Z,1.77
2022-09-23T02:13:47.194Z,1.77
2022-09-23T02:14:18.161Z,1.44
2022-09-23T02:14:40.336Z,1.12
2022-09-23T02:15:06.227Z,.64
2022-09-23T02:15:39.173Z,0
2022-09-23T02:16:11.885Z,.64
2022-09-23T02:16:40.983Z,1.44
2022-09-23T02:17:14.032Z,3.54
2022-09-23T02:17:40.330Z,3.54
2022-09-23T02:18:02.023Z,3.54
2022-09-23T02:18:34.029Z,2.57
2022-09-23T02:19:06.085Z,2.57
2022-09-23T02:19:38.370Z,1.77
2022-09-23T02:20:10.223Z,1.77
2022-09-23T02:20:40.206Z,1.77
2022-09-23T02:20:58.335Z,1.77
2022-09-23T02:21:29.954Z,3.21
2022-09-23T02:21:48.877Z,3.21
2022-09-23T02:22:18.265Z,2.89
2022-09-23T02:22:40.255Z,3.54
2022-09-23T02:23:06.080Z,3.54
2022-09-23T02:23:38.705Z,2.09
2022-09-23T02:24:09.986Z,3.54
2022-09-23T02:24:40.279Z,3.54
2022-09-23T02:24:58.396Z,3.54
2022-09-23T02:25:29.975Z,3.54
2022-09-23T02:25:47.217Z,3.54
2022-09-23T02:26:19.045Z,4.02
2022-09-23T02:26:40.070Z,4.02
2022-09-23T02:27:07.269Z,4.02
2022-09-23T02:27:38.416Z,3.21
2022-09-23T02:28:09.954Z,3.54
2022-09-23T02:28:40.271Z,3.54
2022-09-23T02:28:58.273Z,2.89
2022-09-23T02:29:30.190Z,2.89
2022-09-23T02:29:47.298Z,2.89
2022-09-23T02:30:18.682Z,2.09
2022-09-23T02:30:41.316Z,1.77
2022-09-23T02:31:06.172Z,4.02
2022-09-23T02:31:38.372Z,3.54
2022-09-23T02:32:10.535Z,3.54
2022-09-23T02:32:40.203Z,3.54
2022-09-23T02:32:58.358Z,2.89
2022-09-23T02:33:30.033Z,3.21
2022-09-23T02:33:47.709Z,3.54
2022-09-23T02:34:18.364Z,3.21
2022-09-23T02:34:40.190Z,3.54
2022-09-23T02:35:06.211Z,3.54
2022-09-23T02:35:38.612Z,3.21
2022-09-23T02:36:10.150Z,3.54
2022-09-23T02:36:40.210Z,3.54
2022-09-23T02:36:58.419Z,3.54
2022-09-23T02:37:31.168Z,3.54
2022-09-23T02:37:48.623Z,3.54
2022-09-23T02:38:18.223Z,3.54
2022-09-23T02:38:40.278Z,3.54
2022-09-23T02:39:06.222Z,3.54
2022-09-23T02:39:39.123Z,3.54
2022-09-23T02:40:10.722Z,3.54
2022-09-23T02:40:40.330Z,3.54
2022-09-23T02:40:58.199Z,3.54
2022-09-23T02:41:30.082Z,3.54
2022-09-23T02:41:47.290Z,3.54
2022-09-23T02:42:19.105Z,3.54
2022-09-23T02:42:40.440Z,3.54
2022-09-23T02:43:05.987Z,3.54
2022-09-23T02:43:39.102Z,3.54
2022-09-23T02:44:11.334Z,4.66
2022-09-23T02:44:40.186Z,3.54
2022-09-23T02:44:58.249Z,4.02
2022-09-23T02:45:30.112Z,4.02
2022-09-23T02:45:47.518Z,3.54
2022-09-23T02:46:18.497Z,3.54
2022-09-23T02:46:40.377Z,3.54
2022-09-23T02:47:06.219Z,3.54
2022-09-23T02:47:38.248Z,3.54
2022-09-23T02:48:09.971Z,3.54
2022-09-23T02:48:40.347Z,3.54
2022-09-23T02:48:58.619Z,2.57
2022-09-23T02:49:29.931Z,3.54
2022-09-23T02:49:47.166Z,3.54
2022-09-23T02:50:18.308Z,3.54
2022-09-23T02:50:40.231Z,2.89
2022-09-23T02:51:06.004Z,3.21
2022-09-23T02:51:38.219Z,2.57
2022-09-23T02:52:09.970Z,2.09
2022-09-23T02:52:40.475Z,3.54
2022-09-23T02:52:59.185Z,3.54
2022-09-23T02:53:30.031Z,3.21
2022-09-23T02:53:47.341Z,3.54
2022-09-23T02:54:18.315Z,3.21
2022-09-23T02:54:40.430Z,3.54
2022-09-23T02:55:06.150Z,3.21
2022-09-23T02:55:38.433Z,3.54
2022-09-23T02:56:09.995Z,3.54
2022-09-23T02:56:40.223Z,4.34
2022-09-23T02:56:58.413Z,4.66
2022-09-23T02:57:31.110Z,3.54
2022-09-23T02:57:48.463Z,3.54
2022-09-23T02:58:18.221Z,3.54
2022-09-23T02:58:40.281Z,4.02
2022-09-23T02:59:06.025Z,3.54
2022-09-23T02:59:38.362Z,3.21
2022-09-23T03:00:10.254Z,4.02
2022-09-23T03:00:40.262Z,4.02
2022-09-23T03:00:57.987Z,3.54
2022-09-23T03:01:30.000Z,2.89
2022-09-23T03:01:47.321Z,2.89
2022-09-23T03:02:18.201Z,2.89
2022-09-23T03:02:40.245Z,2.57
2022-09-23T03:03:06.072Z,3.54
2022-09-23T03:03:38.184Z,3.54
2022-09-23T03:04:10.313Z,3.54
2022-09-23T03:04:40.071Z,3.54
2022-09-23T03:04:58.291Z,3.54
2022-09-23T03:05:29.999Z,3.54
2022-09-23T03:05:47.193Z,3.54
2022-09-23T03:06:18.097Z,4.34
2022-09-23T03:06:40.498Z,4.66
2022-09-23T03:07:06.051Z,4.02
2022-09-23T03:07:39.675Z,3.54
2022-09-23T03:08:09.984Z,3.54
2022-09-23T03:08:40.564Z,3.21
2022-09-23T03:08:58.110Z,3.54
2022-09-23T03:09:29.944Z,4.02
2022-09-23T03:09:47.214Z,4.02
2022-09-23T03:10:18.251Z,4.66
2022-09-23T03:10:40.259Z,3.54
2022-09-23T03:11:05.950Z,2.89
2022-09-23T03:11:38.217Z,4.66
2022-09-23T03:12:10.198Z,3.54
2022-09-23T03:12:40.840Z,3.54
2022-09-23T03:12:58.083Z,3.54
2022-09-23T03:13:29.814Z,4.34
2022-09-23T03:13:47.196Z,4.02
2022-09-23T03:14:18.112Z,3.54
2022-09-23T03:14:40.238Z,3.54
2022-09-23T03:15:06.050Z,3.54
2022-09-23T03:15:38.157Z,2.57
2022-09-23T03:16:10.167Z,3.54
2022-09-23T03:16:40.283Z,3.54
2022-09-23T03:16:58.308Z,3.21
2022-09-23T03:17:29.920Z,2.09
2022-09-23T03:17:48.692Z,2.57
2022-09-23T03:18:19.119Z,2.89
2022-09-23T03:18:40.200Z,2.09
2022-09-23T03:19:06.123Z,2.89
2022-09-23T03:19:38.077Z,2.09
2022-09-23T03:20:10.137Z,2.57
2022-09-23T03:20:40.333Z,2.09
2022-09-23T03:20:58.246Z,3.21
2022-09-23T03:21:30.031Z,2.57
2022-09-23T03:21:47.461Z,2.57
2022-09-23T03:22:18.310Z,2.57
2022-09-23T03:22:40.501Z,1.77
2022-09-23T03:23:08.022Z,1.44
2022-09-23T03:23:38.243Z,1.44
2022-09-23T03:24:09.989Z,2.09
2022-09-23T03:24:40.232Z,3.21
2022-09-23T03:24:58.323Z,3.54
2022-09-23T03:25:29.950Z,2.09
2022-09-23T03:25:47.266Z,2.09
2022-09-23T03:26:17.995Z,0
2022-09-23T03:26:40.191Z,1.12
2022-09-23T03:27:06.204Z,3.54
2022-09-23T03:27:38.052Z,2.57
2022-09-23T03:28:10.530Z,2.89
2022-09-23T03:28:40.268Z,1.44
2022-09-23T03:28:58.090Z,2.89
2022-09-23T03:29:29.937Z,3.54
2022-09-23T03:29:47.192Z,3.54
2022-09-23T03:30:18.115Z,3.54
2022-09-23T03:30:40.253Z,3.54
2022-09-23T03:31:06.149Z,3.54
2022-09-23T03:31:38.489Z,2.89
2022-09-23T03:32:10.326Z,3.54
2022-09-23T03:32:40.282Z,3.54
2022-09-23T03:32:58.207Z,3.54
2022-09-23T03:33:30.015Z,2.09
2022-09-23T03:33:47.329Z,2.89
2022-09-23T03:34:18.053Z,3.54
2022-09-23T03:34:40.354Z,3.54
2022-09-23T03:35:06.154Z,3.54
2022-09-23T03:35:38.140Z,3.54
2022-09-23T03:36:09.959Z,1.77
2022-09-23T03:36:40.303Z,1.77
2022-09-23T03:36:58.139Z,1.77
2022-09-23T03:37:30.630Z,1.77
2022-09-23T03:37:47.242Z,1.77
2022-09-23T03:38:18.991Z,1.44
2022-09-23T03:38:40.217Z,1.44
2022-09-23T03:39:06.266Z,1.77
2022-09-23T03:39:38.301Z,1.77
2022-09-23T03:40:10.204Z,1.77
2022-09-23T03:40:40.388Z,1.77
2022-09-23T03:40:58.013Z,1.77
2022-09-23T03:41:29.940Z,1.77
2022-09-23T03:41:47.319Z,2.09
2022-09-23T03:42:18.411Z,1.77
2022-09-23T03:42:40.227Z,1.77
2022-09-23T03:43:05.977Z,1.77
2022-09-23T03:43:39.259Z,1.77
2022-09-23T03:44:09.954Z,1.44
2022-09-23T03:44:40.491Z,1.44
2022-09-23T03:44:58.027Z,1.77
2022-09-23T03:45:30.071Z,1.77
2022-09-23T03:45:47.357Z,1.77
2022-09-23T03:46:18.102Z,1.77
2022-09-23T03:46:41.180Z,2.57
2022-09-23T03:47:06.025Z,2.89
2022-09-23T03:47:38.066Z,2.89
2022-09-23T03:48:10.898Z,2.57
2022-09-23T03:48:40.218Z,2.09
2022-09-23T03:48:58.010Z,2.57
2022-09-23T03:49:29.956Z,1.77
2022-09-23T03:49:47.238Z,2.57
2022-09-23T03:50:18.109Z,2.09
2022-09-23T03:50:40.202Z,2.09
2022-09-23T03:51:05.978Z,2.57
2022-09-23T03:51:41.491Z,2.89
2022-09-23T03:52:09.940Z,2.89
2022-09-23T03:52:40.270Z,3.54
2022-09-23T03:52:58.081Z,3.54
2022-09-23T03:53:30.576Z,4.02
2022-09-23T03:53:47.703Z,3.54
2022-09-23T03:54:18.047Z,3.54
2022-09-23T03:54:40.244Z,3.21
2022-09-23T03:55:06.015Z,2.89
2022-09-23T03:55:38.108Z,2.09
2022-09-23T03:56:10.804Z,1.44
2022-09-23T03:56:40.336Z,2.09
2022-09-23T03:56:58.153Z,1.77
2022-09-23T03:57:30.089Z,1.77
2022-09-23T03:57:47.582Z,2.09
2022-09-23T03:58:18.405Z,2.09
2022-09-23T03:58:40.248Z,2.09
2022-09-23T03:59:05.998Z,2.09
2022-09-23T03:59:38.163Z,2.09
2022-09-23T04:00:10.210Z,1.44
2022-09-23T04:00:40.410Z,.64
2022-09-23T04:00:59.547Z,1.44
2022-09-23T04:01:30.288Z,3.54
2022-09-23T04:01:47.423Z,2.89
2022-09-23T04:02:18.136Z,2.89
2022-09-23T04:02:40.248Z,2.89
2022-09-23T04:03:11.537Z,2.89
2022-09-23T04:03:39.435Z,2.09
2022-09-23T04:04:10.040Z,2.09
2022-09-23T04:04:40.250Z,2.09
2022-09-23T04:04:58.107Z,1.77
2022-09-23T04:05:29.951Z,1.44
2022-09-23T04:05:47.287Z,1.44
2022-09-23T04:06:18.201Z,0
2022-09-23T04:06:40.314Z,0
2022-09-23T04:07:06.196Z,0
2022-09-23T04:07:38.055Z,0
2022-09-23T04:08:10.126Z,2.09
2022-09-23T04:08:41.315Z,2.89
2022-09-23T04:08:57.825Z,1.77
2022-09-23T04:09:29.948Z,2.09
2022-09-23T04:09:47.225Z,2.57
2022-09-23T04:10:19.042Z,3.54
2022-09-23T04:10:40.437Z,2.89
2022-09-23T04:11:06.175Z,3.54
2022-09-23T04:11:38.132Z,3.54
2022-09-23T04:12:11.482Z,2.57
2022-09-23T04:12:40.322Z,2.89
2022-09-23T04:12:57.986Z,1.44
2022-09-23T04:13:29.991Z,1.77
2022-09-23T04:13:48.288Z,1.77
2022-09-23T04:14:17.947Z,1.77
2022-09-23T04:14:40.255Z,2.09
2022-09-23T04:15:06.168Z,2.09
2022-09-23T04:15:38.214Z,2.89
2022-09-23T04:16:10.058Z,2.89
2022-09-23T04:16:40.366Z,3.54
2022-09-23T04:16:58.156Z,2.89
2022-09-23T04:17:30.309Z,2.09
2022-09-23T04:17:47.669Z,1.77
2022-09-23T04:18:18.021Z,3.54
2022-09-23T04:18:40.269Z,1.77
2022-09-23T04:19:09.663Z,3.54
2022-09-23T04:19:39.289Z,2.09
2022-09-23T04:20:10.079Z,1.12
2022-09-23T04:20:40.247Z,0
2022-09-23T04:20:58.017Z,0
2022-09-23T04:21:30.016Z,1.44
2022-09-23T04:21:47.353Z,.32
2022-09-23T04:22:17.998Z,0
2022-09-23T04:22:40.270Z,0
2022-09-23T04:23:06.132Z,0
2022-09-23T04:23:38.054Z,0
2022-09-23T04:24:10.853Z,0
2022-09-23T04:24:41.346Z,1.12
2022-09-23T04:24:57.778Z,0
2022-09-23T04:25:29.987Z,.64
2022-09-23T04:25:47.171Z,0
2022-09-23T04:26:18.039Z,.32
2022-09-23T04:26:40.391Z,.32
2022-09-23T04:27:06.274Z,0
2022-09-23T04:27:38.182Z,0
2022-09-23T04:28:10.269Z,0
2022-09-23T04:28:40.257Z,0
2022-09-23T04:28:58.025Z,0
2022-09-23T04:29:29.941Z,0
2022-09-23T04:29:47.141Z,0
2022-09-23T04:30:18.050Z,0
2022-09-23T04:30:40.247Z,0
2022-09-23T04:31:06.040Z,0
2022-09-23T04:31:39.515Z,0
2022-09-23T04:32:09.945Z,0
2022-09-23T04:32:40.246Z,0
2022-09-23T04:32:58.024Z,0
2022-09-23T04:33:30.170Z,0
2022-09-23T04:33:47.237Z,0
2022-09-23T04:34:19.041Z,0
2022-09-23T04:34:40.263Z,0
2022-09-23T04:35:06.047Z,1.12
2022-09-23T04:35:40.398Z,.32
2022-09-23T04:36:09.959Z,0
2022-09-23T04:36:41.177Z,0
2022-09-23T04:37:13.610Z,0
2022-09-23T04:37:30.023Z,0
2022-09-23T04:37:47.513Z,0
2022-09-23T04:38:18.118Z,0
2022-09-23T04:38:40.346Z,0
2022-09-23T04:39:06.487Z,0
2022-09-23T04:39:38.061Z,0
2022-09-23T04:40:10.299Z,0
2022-09-23T04:40:40.536Z,0
2022-09-23T04:41:01.923Z,0
2022-09-23T04:41:30.024Z,.64
2022-09-23T04:41:47.169Z,0
2022-09-23T04:42:18.053Z,0
2022-09-23T04:42:40.178Z,0
2022-09-23T04:43:07.188Z,0
2022-09-23T04:43:38.117Z,0
2022-09-23T04:44:10.149Z,0
2022-09-23T04:44:40.446Z,0
2022-09-23T04:44:58.185Z,0
2022-09-23T04:45:30.111Z,0
2022-09-23T04:45:47.358Z,1.12
2022-09-23T04:46:18.248Z,.64
2022-09-23T04:46:40.362Z,.64
2022-09-23T04:47:05.968Z,.64
2022-09-23T04:47:38.066Z,.64
2022-09-23T04:48:09.941Z,1.12
2022-09-23T04:48:40.368Z,0
2022-09-23T04:48:58.311Z,0
2022-09-23T04:49:30.918Z,0
2022-09-23T04:49:55.534Z,0
2022-09-23T04:50:18.033Z,0
2022-09-23T04:50:40.372Z,0
2022-09-23T04:51:05.900Z,0
2022-09-23T04:51:38.102Z,0
2022-09-23T04:52:10.010Z,1.77
2022-09-23T04:52:40.255Z,2.09
2022-09-23T04:52:58.150Z,0
2022-09-23T04:53:30.176Z,.32
2022-09-23T04:53:47.269Z,1.44
2022-09-23T04:54:18.085Z,1.44
2022-09-23T04:54:40.317Z,0
2022-09-23T04:55:09.186Z,0
2022-09-23T04:55:38.145Z,0
2022-09-23T04:56:10.967Z,0
2022-09-23T04:56:40.321Z,0
2022-09-23T04:56:57.989Z,0
2022-09-23T04:57:30.080Z,0
2022-09-23T04:57:47.553Z,0
2022-09-23T04:58:18.086Z,0
2022-09-23T04:58:41.447Z,0
2022-09-23T04:59:06.072Z,0
2022-09-23T04:59:38.775Z,0
2022-09-23T05:00:10.339Z,0
2022-09-23T05:00:40.527Z,0
2022-09-23T05:01:01.819Z,0
2022-09-23T05:01:30.126Z,0
2022-09-23T05:01:47.812Z,0
2022-09-23T05:02:18.623Z,0
2022-09-23T05:02:40.275Z,0
2022-09-23T05:03:06.063Z,0
2022-09-23T05:03:38.068Z,0
2022-09-23T05:04:09.913Z,0
2022-09-23T05:04:41.132Z,0
2022-09-23T05:04:58.105Z,0
2022-09-23T05:05:30.071Z,0
2022-09-23T05:05:47.199Z,0
2022-09-23T05:06:18.083Z,0
2022-09-23T05:06:40.276Z,0
2022-09-23T05:07:06.037Z,0
2022-09-23T05:07:38.562Z,0
2022-09-23T05:08:10.359Z,0
2022-09-23T05:08:40.344Z,0
2022-09-23T05:08:58.092Z,0
2022-09-23T05:09:30.186Z,0
2022-09-23T05:09:49.348Z,0
2022-09-23T05:10:19.054Z,0
2022-09-23T05:10:40.313Z,0
2022-09-23T05:11:06.231Z,0
2022-09-23T05:11:38.272Z,0
2022-09-23T05:12:10.156Z,0
2022-09-23T05:12:40.346Z,0
2022-09-23T05:12:58.335Z,0
2022-09-23T05:13:30.469Z,0
2022-09-23T05:13:47.408Z,0
2022-09-23T05:14:18.258Z,0
2022-09-23T05:14:40.458Z,0
2022-09-23T05:15:06.228Z,0
2022-09-23T05:15:38.314Z,0
2022-09-23T05:16:10.224Z,0
2022-09-23T05:16:40.550Z,0
2022-09-23T05:16:58.311Z,0
2022-09-23T05:17:30.355Z,0
2022-09-23T05:17:47.793Z,0
2022-09-23T05:18:20.823Z,0
2022-09-23T05:18:40.928Z,0
2022-09-23T05:19:06.192Z,0
2022-09-23T05:19:38.402Z,0
2022-09-23T05:20:13.741Z,0
2022-09-23T05:20:40.541Z,0
2022-09-23T05:20:58.257Z,0
2022-09-23T05:21:30.194Z,0
2022-09-23T05:21:47.418Z,0
2022-09-23T05:22:17.970Z,0
2022-09-23T05:22:40.515Z,0
2022-09-23T05:23:06.151Z,0
2022-09-23T05:23:38.095Z,0
2022-09-23T05:24:10.219Z,0
2022-09-23T05:24:40.501Z,0
2022-09-23T05:24:58.395Z,0
2022-09-23T05:25:31.214Z,0
2022-09-23T05:25:47.598Z,0
2022-09-23T05:26:18.225Z,0
2022-09-23T05:26:40.487Z,0
2022-09-23T05:27:06.301Z,0
2022-09-23T05:27:38.262Z,0
2022-09-23T05:28:10.319Z,0
2022-09-23T05:28:40.556Z,0
2022-09-23T05:28:58.336Z,0
2022-09-23T05:29:30.248Z,0
2022-09-23T05:29:47.471Z,0
2022-09-23T05:30:19.260Z,0
2022-09-23T05:30:40.633Z,0
2022-09-23T05:31:06.316Z,0
2022-09-23T05:31:38.620Z,0
2022-09-23T05:32:10.213Z,0
2022-09-23T05:32:40.445Z,0
2022-09-23T05:32:58.262Z,0
2022-09-23T05:33:30.243Z,0
2022-09-23T05:33:47.895Z,0
2022-09-23T05:34:18.247Z,0
2022-09-23T05:34:40.474Z,0
2022-09-23T05:35:06.245Z,0
2022-09-23T05:35:38.292Z,0
2022-09-23T05:36:10.280Z,0
2022-09-23T05:36:41.373Z,0
2022-09-23T05:37:13.567Z,0
2022-09-23T05:37:30.323Z,0
2022-09-23T05:37:47.589Z,0
2022-09-23T05:38:18.352Z,0
2022-09-23T05:38:40.432Z,0
2022-09-23T05:39:06.491Z,0
2022-09-23T05:39:38.213Z,0
2022-09-23T05:40:10.489Z,0
2022-09-23T05:40:40.476Z,0
2022-09-23T05:40:58.340Z,0
2022-09-23T05:41:30.206Z,0
2022-09-23T05:41:47.481Z,0
2022-09-23T05:42:18.433Z,0
2022-09-23T05:42:40.579Z,0
2022-09-23T05:43:06.204Z,0
2022-09-23T05:43:38.330Z,0
2022-09-23T05:44:10.233Z,.32
2022-09-23T05:44:40.527Z,0
2022-09-23T05:44:58.313Z,0
2022-09-23T05:45:30.796Z,0
2022-09-23T05:45:48.000Z,0
2022-09-23T05:46:18.280Z,0
2022-09-23T05:46:40.582Z,0
2022-09-23T05:47:06.252Z,0
2022-09-23T05:47:38.337Z,0
2022-09-23T05:48:10.185Z,0
2022-09-23T05:48:40.436Z,0
2022-09-23T05:49:02.089Z,0
2022-09-23T05:49:48.644Z,0
2022-09-23T05:50:18.594Z,0
2022-09-23T05:50:40.573Z,.32
2022-09-23T05:51:05.897Z,0
2022-09-23T05:51:38.047Z,0
2022-09-23T05:52:10.371Z,0
2022-09-23T05:52:40.430Z,0
2022-09-23T05:52:58.153Z,0
2022-09-23T05:53:30.256Z,0
2022-09-23T05:53:47.730Z,0
2022-09-23T05:54:18.290Z,0
2022-09-23T05:54:40.433Z,0
2022-09-23T05:55:06.142Z,0
2022-09-23T05:55:40.131Z,0
2022-09-23T05:56:10.303Z,0
2022-09-23T05:56:40.459Z,0
2022-09-23T05:57:02.677Z,0
2022-09-23T05:57:30.282Z,0
2022-09-23T05:57:47.546Z,0
2022-09-23T05:58:18.247Z,0
2022-09-23T05:58:40.483Z,0
2022-09-23T05:59:06.148Z,0
2022-09-23T05:59:38.265Z,0
2022-09-23T06:00:10.518Z,0
2022-09-23T06:00:41.256Z,0
2022-09-23T06:00:58.460Z,0
2022-09-23T06:01:30.482Z,0
2022-09-23T06:01:47.652Z,0
2022-09-23T06:02:18.573Z,0
2022-09-23T06:02:40.499Z,0
2022-09-23T06:03:06.342Z,0
2022-09-23T06:03:38.268Z,0
2022-09-23T06:04:10.311Z,0
2022-09-23T06:04:40.653Z,0
2022-09-23T06:04:58.164Z,0
2022-09-23T06:05:30.214Z,0
2022-09-23T06:05:47.976Z,0
2022-09-23T06:06:18.368Z,0
2022-09-23T06:06:40.539Z,0
2022-09-23T06:07:06.127Z,0
2022-09-23T06:07:38.480Z,0
2022-09-23T06:08:10.305Z,0
2022-09-23T06:08:40.516Z,0
2022-09-23T06:08:58.366Z,0
2022-09-23T06:09:35.590Z,0
2022-09-23T06:09:47.758Z,0
2022-09-23T06:10:18.100Z,0
2022-09-23T06:10:40.467Z,0
2022-09-23T06:11:06.205Z,0
2022-09-23T06:11:38.264Z,1.44
2022-09-23T06:12:10.164Z,1.44
2022-09-23T06:12:40.483Z,1.44
2022-09-23T06:12:58.521Z,.32
2022-09-23T06:13:30.242Z,1.12
2022-09-23T06:13:47.478Z,1.12
2022-09-23T06:14:19.034Z,0
2022-09-23T06:14:40.507Z,0
2022-09-23T06:15:06.239Z,0
2022-09-23T06:15:38.225Z,0
2022-09-23T06:16:10.296Z,0
2022-09-23T06:16:40.487Z,0
2022-09-23T06:16:58.165Z,0
2022-09-23T06:17:30.315Z,0
2022-09-23T06:17:47.440Z,0
2022-09-23T06:18:18.122Z,0
2022-09-23T06:18:40.448Z,0
2022-09-23T06:19:06.850Z,0
2022-09-23T06:19:38.339Z,0
2022-09-23T06:20:10.357Z,0
2022-09-23T06:20:40.462Z,0
2022-09-23T06:20:58.646Z,.64